This is the latest recevied weather packets stored in our database for station/object HB9EKO-12. If no packets are shown the sender has not sent any weather packets the latest 10 day(s).
| Time | Temp. | Humidity | Pressure | Rain* | Wind** | Luminosity | Snow |
|---|---|---|---|---|---|---|---|
| 1777467389 | 21.67° C | 36% | 1019 hPa | - | - | - | - |
| 1777466484 | 21.11° C | 37% | 1019 hPa | - | - | - | - |
| 1777465578 | 21.11° C | 38% | 1019 hPa | - | - | - | - |
| 1777464673 | 21.11° C | 38% | 1019 hPa | - | - | - | - |
| 1777463768 | 20.56° C | 42% | 1019 hPa | - | - | - | - |
| 1777462863 | 20° C | 43% | 1019 hPa | - | - | - | - |
| 1777461957 | 18.89° C | 45% | 1019 hPa | - | - | - | - |
| 1777461052 | 18.89° C | 45% | 1019 hPa | - | - | - | - |
| 1777460147 | 18.33° C | 46% | 1019 hPa | - | - | - | - |
| 1777459242 | 18.33° C | 48% | 1019 hPa | - | - | - | - |
| 1777458336 | 17.22° C | 49% | 1019 hPa | - | - | - | - |
| 1777457431 | 16.67° C | 51% | 1019 hPa | - | - | - | - |
| 1777456526 | 16.11° C | 48% | 1019 hPa | - | - | - | - |
| 1777455621 | 16.11° C | 47% | 1019 hPa | - | - | - | - |
| 1777454716 | 16.11° C | 48% | 1019 hPa | - | - | - | - |
| 1777453810 | 16.11° C | 49% | 1019 hPa | - | - | - | - |
| 1777452905 | 15.56° C | 48% | 1019 hPa | - | - | - | - |
| 1777452000 | 15° C | 51% | 1019 hPa | - | - | - | - |
| 1777451094 | 13.89° C | 52% | 1019 hPa | - | - | - | - |
| 1777450189 | 13.33° C | 51% | 1019 hPa | - | - | - | - |
| 1777449284 | 13.33° C | 53% | 1019 hPa | - | - | - | - |
| 1777448379 | 12.78° C | 53% | 1019 hPa | - | - | - | - |
| 1777447474 | 15° C | 48% | 1019 hPa | - | - | - | - |
| 1777446568 | 12.78° C | 54% | 1019 hPa | - | - | - | - |
| 1777445663 | 12.78° C | 51% | 1019 hPa | - | - | - | - |
* Rain since midnight (hover to see other rain measurements)
** Current wind speed in m/s (hover to see current wind gust speed)